Time;durP1;ratioP1;P1;durP2;ratioP2;P2;SDS_P1;SDS_P2;PMS_P1;PMS_P2;Temp;Humidity;BMP_temperature;BMP_pressure;BME280_temperature;BME280_humidity;BME280_pressure;Samples;Min_cycle;Max_cycle;Signal;HPM_P1;HPM_P2
2021/08/04 00:01:48;;;;;;;7.20;5.12;;;;;;;17.62;67.73;100325.02;1695227;84;20949;-71
2021/08/04 00:04:15;;;;;;;6.50;5.15;;;;;;;17.61;67.76;100331.37;1686607;84;21521;-71
2021/08/04 00:06:42;;;;;;;6.40;4.87;;;;;;;17.59;67.82;100327.20;1661670;85;21497;-71
2021/08/04 00:09:09;;;;;;;4.87;4.37;;;;;;;17.55;67.92;100328.52;1668119;86;22652;-71
2021/08/04 00:11:35;;;;;;;7.12;4.40;;;;;;;17.52;68.00;100328.87;1668074;85;21532;-71
2021/08/04 00:14:02;;;;;;;5.33;4.55;;;;;;;17.49;68.12;100334.55;1668175;86;21056;-71
2021/08/04 00:16:29;;;;;;;5.15;4.33;;;;;;;17.48;68.24;100335.56;1668148;84;20965;-71
2021/08/04 00:18:57;;;;;;;6.37;4.67;;;;;;;17.46;68.24;100338.37;1685679;83;20992;-71
2021/08/04 00:21:23;;;;;;;6.83;4.70;;;;;;;17.42;68.22;100341.89;1742220;82;22188;-71
2021/08/04 00:23:50;;;;;;;5.67;4.60;;;;;;;17.39;68.31;100342.73;1741338;82;20993;-71
2021/08/04 00:26:17;;;;;;;5.08;4.55;;;;;;;17.38;68.34;100343.23;1741409;82;21075;-71
2021/08/04 00:28:44;;;;;;;5.20;4.70;;;;;;;17.35;68.44;100340.88;1741426;82;21017;-71
2021/08/04 00:31:12;;;;;;;6.28;4.83;;;;;;;17.35;68.50;100334.70;1741388;82;21028;-71
2021/08/04 00:33:38;;;;;;;6.45;4.60;;;;;;;17.35;68.50;100340.05;1741392;82;22174;-71
2021/08/04 00:36:05;;;;;;;7.67;4.75;;;;;;;17.32;68.46;100335.87;1737595;82;21071;-72
2021/08/04 00:38:31;;;;;;;5.92;4.50;;;;;;;17.29;68.52;100333.55;1714636;83;21098;-71
2021/08/04 00:40:58;;;;;;;5.42;4.50;;;;;;;17.27;68.53;100333.36;1688322;85;21593;-71
2021/08/04 00:43:25;;;;;;;5.03;4.53;;;;;;;17.25;68.59;100338.03;1741709;82;21521;-71
2021/08/04 00:45:52;;;;;;;5.87;4.97;;;;;;;17.22;68.56;100340.55;1741633;82;22188;-71
2021/08/04 00:48:18;;;;;;;6.47;4.45;;;;;;;17.19;68.59;100340.05;1741239;82;21381;-71
2021/08/04 00:50:45;;;;;;;6.58;4.58;;;;;;;17.14;68.63;100336.02;1736716;82;20977;-71
2021/08/04 00:53:23;;;;;;;7.25;4.97;;;;;;;17.11;68.65;100338.20;1741429;82;21061;-71
2021/08/04 00:55:52;;;;;;;5.80;4.92;;;;;;;17.07;68.71;100343.02;1744245;82;21048;-72
2021/08/04 00:58:20;;;;;;;5.30;4.28;;;;;;;17.03;68.79;100341.69;1749864;82;21796;-71
2021/08/04 01:00:51;;;;;;;6.92;4.33;;;;;;;17.01;68.85;100348.19;1683066;83;21131;-72
2021/08/04 01:03:20;;;;;;;6.15;4.70;;;;;;;16.98;68.90;100344.50;1703168;83;20979;-71
2021/08/04 01:05:54;;;;;;;7.00;4.72;;;;;;;16.94;69.00;100345.33;1711791;83;20978;-71
2021/08/04 01:08:25;;;;;;;5.95;4.72;;;;;;;16.95;69.17;100349.67;1711875;83;21007;-71
2021/08/04 01:10:52;;;;;;;6.42;4.90;;;;;;;16.93;69.23;100347.67;1711690;83;21841;-71
2021/08/04 01:13:29;;;;;;;4.87;4.37;;;;;;;16.92;69.26;100350.51;1746185;82;20959;-71
2021/08/04 01:16:12;;;;;;;5.03;4.53;;;;;;;16.92;69.23;100354.01;1718462;82;21415;-71
2021/08/04 01:18:49;;;;;;;;;;;;;;;16.88;69.24;100353.48;1745140;82;20965;-72
2021/08/04 01:21:15;;;;;;;7.05;4.65;;;;;;;16.86;69.29;100357.31;1714788;82;20143;-71
2021/08/04 01:24:09;;;;;;;6.22;4.70;;;;;;;16.82;69.35;100360.82;1715886;82;21028;-72
2021/08/04 01:26:39;;;;;;;7.25;4.80;;;;;;;16.79;69.39;100358.48;1744999;82;20949;-72
2021/08/04 01:29:13;;;;;;;6.08;4.37;;;;;;;16.78;69.41;100357.28;1727535;82;20970;-72
2021/08/04 01:31:40;;;;;;;5.80;4.25;;;;;;;16.74;69.44;100352.79;1742243;82;21013;-72
2021/08/04 01:34:06;;;;;;;6.15;4.92;;;;;;;16.71;69.42;100357.12;1749147;82;20964;-72
2021/08/04 01:36:33;;;;;;;5.05;4.55;;;;;;;16.69;69.53;100351.59;1714019;83;21825;-72
2021/08/04 01:39:02;;;;;;;5.08;4.50;;;;;;;16.69;69.63;100350.26;1749766;81;20946;-72
2021/08/04 01:41:29;;;;;;;6.75;4.75;;;;;;;16.69;69.65;100349.76;1749783;82;20945;-72
2021/08/04 01:43:55;;;;;;;6.30;4.50;;;;;;;16.70;69.64;100353.29;1749764;82;20989;-72
2021/08/04 01:46:22;;;;;;;6.08;4.60;;;;;;;16.67;69.64;100355.72;1743357;81;21133;-72
2021/08/04 01:48:50;;;;;;;7.85;4.53;;;;;;;16.63;69.70;100353.06;1741293;82;22612;-72
2021/08/04 01:51:17;;;;;;;7.15;4.85;;;;;;;16.60;69.73;100354.72;1741545;82;20981;-72
2021/08/04 01:53:45;;;;;;;5.05;4.53;;;;;;;16.57;69.79;100351.86;1741845;81;21073;-72
2021/08/04 01:56:14;;;;;;;5.60;4.92;;;;;;;16.55;69.89;100358.36;1741508;82;21029;-72
2021/08/04 01:58:40;;;;;;;7.05;4.95;;;;;;;16.53;70.05;100353.19;1741917;82;20950;-72
2021/08/04 02:01:06;;;;;;;7.90;4.50;;;;;;;16.53;70.17;100355.85;1743200;82;22200;-72
2021/08/04 02:03:33;;;;;;;6.08;4.20;;;;;;;16.53;70.22;100357.69;1744002;81;21006;-72
2021/08/04 02:06:03;;;;;;;4.72;4.22;;;;;;;16.52;70.26;100353.35;1737557;82;20963;-72
2021/08/04 02:08:38;;;;;;;5.37;4.87;;;;;;;16.51;70.27;100356.52;1740497;82;21131;-72
2021/08/04 02:11:12;;;;;;;6.78;4.78;;;;;;;16.48;70.29;100359.48;1740510;82;21454;-72
2021/08/04 02:13:43;;;;;;;4.85;4.35;;;;;;;16.45;70.30;100355.81;1739252;82;21860;-72
2021/08/04 02:16:33;;;;;;;5.85;4.62;;;;;;;16.43;70.29;100362.31;1742431;81;21417;-72
2021/08/04 02:19:20;;;;;;;6.95;4.92;;;;;;;16.39;70.37;100359.11;1747408;82;20997;-72
2021/08/04 02:21:51;;;;;;;6.65;4.72;;;;;;;16.37;70.39;100362.94;1712830;83;21020;-72
2021/08/04 02:24:19;;;;;;;6.15;4.72;;;;;;;16.34;70.45;100362.77;1725508;83;21067;-72
2021/08/04 02:26:46;;;;;;;9.23;5.33;;;;;;;16.33;70.44;100363.77;1725309;83;21834;-72
2021/08/04 02:29:13;;;;;;;6.70;5.20;;;;;;;16.32;70.36;100374.09;1675293;83;21055;-72
2021/08/04 02:31:41;;;;;;;12.03;5.30;;;;;;;16.31;70.32;100369.76;1738507;81;20953;-72
2021/08/04 02:34:08;;;;;;;8.68;5.50;;;;;;;16.31;70.31;100371.09;1753778;81;20965;-72
2021/08/04 02:36:35;;;;;;;8.65;5.40;;;;;;;16.30;70.28;100366.73;1752768;81;21066;-72
2021/08/04 02:39:02;;;;;;;8.83;5.53;;;;;;;16.30;70.32;100368.89;1715401;82;21817;-72
2021/08/04 02:41:32;;;;;;;8.18;5.40;;;;;;;16.28;70.28;100364.22;1719872;82;20985;-72
2021/08/04 02:44:02;;;;;;;6.50;5.10;;;;;;;16.28;70.28;100366.89;1752257;81;20965;-71
2021/08/04 02:46:30;;;;;;;5.87;5.28;;;;;;;16.26;70.28;100374.71;1755539;80;21444;-72
2021/08/04 02:48:57;;;;;;;12.70;5.58;;;;;;;16.24;70.33;100373.55;1755609;81;21452;-72
2021/08/04 02:51:24;;;;;;;9.28;5.53;;;;;;;16.21;70.35;100371.20;1720098;83;22204;-72
2021/08/04 02:53:55;;;;;;;9.05;5.50;;;;;;;16.20;70.36;100370.84;1718683;83;21000;-72
2021/08/04 02:56:22;;;;;;;6.60;5.15;;;;;;;16.18;70.40;100374.66;1693740;84;21055;-72
2021/08/04 02:58:50;;;;;;;9.48;5.90;;;;;;;16.19;70.49;100369.67;1719050;83;21017;-72
2021/08/04 03:01:17;;;;;;;7.67;5.50;;;;;;;16.17;70.61;100371.16;1719358;83;20873;-72
2021/08/04 03:03:43;;;;;;;5.80;5.20;;;;;;;16.19;70.68;100376.33;1693670;84;22859;-72
2021/08/04 03:06:10;;;;;;;6.55;4.87;;;;;;;16.19;70.80;100375.00;1693598;84;20962;-72
2021/08/04 03:08:37;;;;;;;6.37;5.17;;;;;;;16.21;70.87;100377.87;1691584;84;20963;-72
2021/08/04 03:11:09;;;;;;;8.25;5.33;;;;;;;16.24;70.94;100381.53;1678162;85;21014;-72
2021/08/04 03:13:37;;;;;;;6.47;5.30;;;;;;;16.27;71.01;100381.71;1661457;85;21008;-72
2021/08/04 03:16:04;;;;;;;6.22;4.90;;;;;;;16.30;71.07;100384.05;1675320;85;22264;-72
2021/08/04 03:18:31;;;;;;;6.22;5.17;;;;;;;16.33;71.11;100387.75;1693071;84;21091;-72
2021/08/04 03:20:58;;;;;;;6.47;5.15;;;;;;;16.34;71.21;100384.59;1693150;84;21424;-71
2021/08/04 03:23:25;;;;;;;6.45;5.12;;;;;;;16.36;71.26;100387.92;1695521;83;21507;-72
2021/08/04 03:25:52;;;;;;;5.75;4.97;;;;;;;16.37;71.32;100393.59;1695204;84;21051;-72
2021/08/04 03:28:19;;;;;;;6.83;5.12;;;;;;;16.37;71.41;100392.26;1691808;83;22441;-72
2021/08/04 03:30:45;;;;;;;6.12;5.10;;;;;;;16.39;71.53;100396.92;1661552;86;21516;-72
2021/08/04 03:33:12;;;;;;;5.60;5.10;;;;;;;16.42;71.63;100397.47;1658752;86;21099;-72
2021/08/04 03:35:39;;;;;;;5.20;4.70;;;;;;;16.43;71.82;100399.63;1670215;85;20993;-72
2021/08/04 03:38:05;;;;;;;5.87;5.28;;;;;;;16.44;71.91;100392.80;1654346;86;21071;-72
2021/08/04 03:40:32;;;;;;;6.03;5.42;;;;;;;16.49;71.98;100394.98;1694955;84;21808;-72
2021/08/04 03:42:58;;;;;;;6.83;5.40;;;;;;;16.53;71.99;100406.52;1694414;84;20960;-72
2021/08/04 03:45:26;;;;;;;7.62;5.42;;;;;;;16.61;72.01;100408.39;1661568;86;21048;-72
2021/08/04 03:47:53;;;;;;;8.68;5.58;;;;;;;16.68;72.00;100405.42;1663929;85;20992;-72
2021/08/04 03:50:20;;;;;;;7.08;5.85;;;;;;;16.81;71.84;100405.00;1660600;86;21047;-72
2021/08/04 03:52:47;;;;;;;7.10;5.90;;;;;;;16.90;71.83;100412.53;1694715;84;21832;-72
2021/08/04 03:55:13;;;;;;;7.80;6.35;;;;;;;16.97;71.83;100414.88;1695058;84;20985;-72
2021/08/04 03:57:40;;;;;;;8.43;6.62;;;;;;;17.06;71.78;100416.56;1676807;84;21009;-72
2021/08/04 04:00:08;;;;;;;8.20;7.40;;;;;;;17.13;71.65;100411.76;1691286;84;20977;-72
2021/08/04 04:02:37;;;;;;;8.90;8.00;;;;;;;17.23;71.54;100418.28;1691042;83;20994;-72
2021/08/04 04:05:06;;;;;;;11.63;8.38;;;;;;;17.32;71.44;100419.97;1672840;85;21797;-72
2021/08/04 04:07:32;;;;;;;10.68;8.08;;;;;;;17.41;71.35;100423.49;1671052;85;21068;-72
2021/08/04 04:09:59;;;;;;;10.63;8.13;;;;;;;17.51;71.39;100426.01;1705327;84;21016;-73
2021/08/04 04:12:25;;;;;;;10.50;8.48;;;;;;;17.60;71.41;100428.52;1687175;85;21047;-73
2021/08/04 04:14:53;;;;;;;11.08;8.90;;;;;;;17.70;71.40;100432.40;1702870;84;21027;-74
2021/08/04 04:17:21;;;;;;;12.33;8.08;;;;;;;17.81;71.37;100433.91;1668911;84;21160;-74
2021/08/04 04:19:48;;;;;;;11.10;7.58;;;;;;;17.94;71.45;100440.40;1663184;86;20949;-73
2021/08/04 04:22:15;;;;;;;11.08;6.92;;;;;;;18.04;71.42;100437.55;1665951;85;21044;-71
2021/08/04 04:24:41;;;;;;;12.75;7.83;;;;;;;18.16;71.38;100440.23;1680475;85;21317;-73
2021/08/04 04:27:08;;;;;;;11.80;7.15;;;;;;;18.27;71.31;100438.55;1658850;86;21047;-71
2021/08/04 04:29:35;;;;;;;9.40;6.92;;;;;;;18.36;71.21;100439.36;1689939;84;21804;-71
2021/08/04 04:32:03;;;;;;;7.67;6.78;;;;;;;18.47;71.04;100439.00;1666237;85;21028;-72
2021/08/04 04:34:30;;;;;;;9.95;6.95;;;;;;;18.59;70.91;100438.95;1681048;85;21015;-74
2021/08/04 04:36:57;;;;;;;9.40;7.62;;;;;;;18.71;70.78;100440.78;1695022;84;21015;-73
2021/08/04 04:39:23;;;;;;;9.85;7.53;;;;;;;18.81;70.67;100436.05;1647155;85;21076;-73
2021/08/04 04:41:50;;;;;;;11.60;7.28;;;;;;;18.95;70.61;100438.52;1696044;83;21848;-74
2021/08/04 04:44:17;;;;;;;10.32;6.97;;;;;;;19.08;70.52;100445.98;1680560;84;21008;-74
2021/08/04 04:46:43;;;;;;;7.78;6.35;;;;;;;19.21;70.46;100451.62;1680139;84;21032;-74
2021/08/04 04:49:10;;;;;;;8.70;6.97;;;;;;;19.35;70.36;100453.53;1695457;83;21010;-74
2021/08/04 04:51:37;;;;;;;8.08;6.40;;;;;;;19.51;70.30;100453.11;1695649;83;20961;-74
2021/08/04 04:54:03;;;;;;;8.73;6.87;;;;;;;19.63;70.37;100454.39;1689314;84;22190;-75
2021/08/04 04:56:31;;;;;;;7.97;6.15;;;;;;;19.77;70.30;100455.45;1688145;85;21404;-74
2021/08/04 04:58:57;;;;;;;7.72;6.80;;;;;;;19.89;70.22;100454.86;1661975;86;20965;-74
2021/08/04 05:01:24;;;;;;;7.28;6.45;;;;;;;20.00;70.14;100445.05;1676698;85;21016;-74
2021/08/04 05:03:51;;;;;;;8.83;6.28;;;;;;;20.11;69.93;100449.13;1673709;85;20970;-75
2021/08/04 05:06:17;;;;;;;10.72;6.25;;;;;;;20.24;69.84;100445.81;1674356;84;22940;-74
2021/08/04 05:08:44;;;;;;;8.03;5.90;;;;;;;20.35;69.84;100437.83;1687446;84;20929;-74
2021/08/04 05:11:11;;;;;;;8.28;5.28;;;;;;;20.44;69.53;100438.93;1743196;82;20970;-74
2021/08/04 05:13:38;;;;;;;7.22;5.37;;;;;;;20.56;69.13;100429.42;1743668;82;21250;-74
2021/08/04 05:16:05;;;;;;;6.75;5.03;;;;;;;20.67;68.53;100429.98;1743759;82;21064;-74
2021/08/04 05:18:32;;;;;;;5.37;4.55;;;;;;;20.75;67.93;100433.87;1743666;82;22663;-74
2021/08/04 05:20:59;;;;;;;14.20;5.87;;;;;;;20.83;67.19;100435.12;1743995;81;20977;-75
2021/08/04 05:23:26;;;;;;;11.00;5.40;;;;;;;20.90;66.82;100433.37;1749734;81;21008;-74
2021/08/04 05:25:52;;;;;;;10.25;5.28;;;;;;;21.00;66.59;100436.59;1713777;83;21048;-74
2021/08/04 05:28:18;;;;;;;8.75;5.00;;;;;;;21.10;66.29;100441.66;1708622;83;20970;-74
2021/08/04 05:30:46;;;;;;;7.92;5.20;;;;;;;21.20;65.94;100440.02;1681232;85;21484;-74
2021/08/04 05:33:12;;;;;;;5.08;4.58;;;;;;;21.28;65.63;100438.59;1679678;85;21568;-74
2021/08/04 05:35:39;;;;;;;9.08;4.90;;;;;;;21.37;65.31;100444.17;1680758;85;20973;-74
2021/08/04 05:38:06;;;;;;;4.80;4.17;;;;;;;21.45;64.74;100449.95;1688436;85;21041;-75
2021/08/04 05:40:32;;;;;;;6.42;4.95;;;;;;;21.52;63.87;100457.55;1741635;81;21079;-75
2021/08/04 05:42:58;;;;;;;6.70;4.85;;;;;;;21.58;63.70;100458.97;1750011;82;22461;-75
2021/08/04 05:45:25;;;;;;;7.22;4.92;;;;;;;21.59;63.47;100461.14;1749380;82;21469;-75
2021/08/04 05:47:52;;;;;;;7.83;4.92;;;;;;;21.58;63.25;100464.34;1748915;80;21496;-75
2021/08/04 05:50:18;;;;;;;10.75;4.97;;;;;;;21.64;63.11;100458.21;1700698;83;21448;-75
2021/08/04 05:52:44;;;;;;;6.80;4.60;;;;;;;21.74;62.94;100459.75;1747358;82;21107;-74
2021/08/04 05:55:11;;;;;;;5.25;4.50;;;;;;;21.83;62.91;100461.29;1745417;82;22189;-75
2021/08/04 05:57:38;;;;;;;4.15;3.25;;;;;;;21.91;62.82;100457.13;1741705;82;20958;-75
2021/08/04 06:00:07;;;;;;;3.77;3.35;;;;;;;21.98;61.23;100461.52;1749835;82;21388;-75
2021/08/04 06:02:33;;;;;;;4.25;3.75;;;;;;;22.06;60.16;100459.20;1743202;82;21010;-75
2021/08/04 06:05:00;;;;;;;4.53;3.83;;;;;;;22.14;59.53;100456.92;1749703;82;21006;-75
2021/08/04 06:07:27;;;;;;;4.60;3.52;;;;;;;22.20;59.10;100462.88;1749572;82;21844;-75
2021/08/04 06:09:53;;;;;;;4.22;3.80;;;;;;;22.19;59.06;100462.53;1755067;81;20984;-75
2021/08/04 06:12:21;;;;;;;4.20;3.30;;;;;;;22.20;58.54;100466.92;1754864;81;20953;-74
2021/08/04 06:14:47;;;;;;;5.33;3.62;;;;;;;22.24;58.00;100461.45;1755350;81;20952;-74
2021/08/04 06:17:14;;;;;;;5.33;4.00;;;;;;;22.31;57.79;100462.85;1755122;81;21047;-74
2021/08/04 06:19:40;;;;;;;6.42;3.70;;;;;;;22.39;58.07;100458.16;1740476;82;22831;-74
2021/08/04 06:22:06;;;;;;;5.53;3.37;;;;;;;22.42;58.12;100455.58;1741665;81;22353;-74
2021/08/04 06:24:34;;;;;;;6.87;3.90;;;;;;;22.51;58.08;100459.78;1752652;81;21016;-74
2021/08/04 06:27:02;;;;;;;5.60;3.58;;;;;;;22.63;58.44;100457.36;1755268;81;21098;-74
2021/08/04 06:29:28;;;;;;;5.47;3.62;;;;;;;22.75;57.47;100463.84;1755331;81;20945;-74
2021/08/04 06:31:55;;;;;;;6.97;3.20;;;;;;;22.84;56.70;100455.42;1755570;81;21746;-74
2021/08/04 06:34:21;;;;;;;4.92;2.80;;;;;;;22.94;56.11;100458.27;1752584;81;21065;-74
2021/08/04 06:36:47;;;;;;;3.35;2.83;;;;;;;23.03;54.98;100461.94;1725507;81;21435;-74
2021/08/04 06:39:14;;;;;;;2.92;2.72;;;;;;;23.12;54.06;100462.08;1755301;81;21460;-74
2021/08/04 06:41:40;;;;;;;4.30;2.50;;;;;;;23.21;53.48;100461.91;1755108;81;21384;-74
2021/08/04 06:44:07;;;;;;;6.03;2.80;;;;;;;23.30;52.77;100458.00;1755289;81;21894;-74
2021/08/04 06:46:35;;;;;;;3.30;2.77;;;;;;;23.39;51.94;100462.17;1754774;80;20953;-74
2021/08/04 06:49:03;;;;;;;5.40;2.77;;;;;;;23.46;50.83;100463.55;1755309;81;21040;-74
2021/08/04 06:51:30;;;;;;;3.87;2.67;;;;;;;23.50;50.84;100462.92;1726938;81;21019;-74
2021/08/04 06:53:56;;;;;;;3.37;2.58;;;;;;;23.58;51.02;100464.09;1752777;81;20981;-74
2021/08/04 06:56:23;;;;;;;3.58;3.08;;;;;;;23.65;50.81;100458.23;1752452;81;22166;-74
2021/08/04 06:58:49;;;;;;;2.95;2.65;;;;;;;23.75;51.21;100465.92;1755575;81;20984;-74
2021/08/04 07:01:16;;;;;;;2.65;2.40;;;;;;;23.81;50.84;100469.64;1755493;81;21024;-74
2021/08/04 07:03:43;;;;;;;4.90;2.35;;;;;;;23.85;51.08;100473.09;1755455;81;20966;-74
2021/08/04 07:06:10;;;;;;;3.62;2.45;;;;;;;23.94;50.40;100472.38;1755356;81;21032;-74
2021/08/04 07:08:37;;;;;;;3.80;2.27;;;;;;;23.97;50.29;100466.03;1751052;81;21823;-74
2021/08/04 07:11:04;;;;;;;3.10;2.27;;;;;;;24.05;50.99;100469.58;1747821;82;21044;-74
2021/08/04 07:13:30;;;;;;;4.33;2.50;;;;;;;24.16;51.05;100468.95;1752071;82;20952;-74
2021/08/04 07:15:56;;;;;;;4.03;2.20;;;;;;;24.27;50.97;100473.70;1752639;82;20968;-74
2021/08/04 07:18:23;;;;;;;4.25;2.42;;;;;;;24.38;50.57;100470.92;1752680;81;21470;-74
2021/08/04 07:20:49;;;;;;;4.60;2.05;;;;;;;24.44;50.36;100463.34;1752601;82;21824;-74
2021/08/04 07:23:16;;;;;;;3.15;2.40;;;;;;;24.51;50.15;100461.44;1752641;82;20996;-74
2021/08/04 07:25:43;;;;;;;2.50;2.30;;;;;;;24.59;50.04;100461.74;1749017;82;21077;-74
2021/08/04 07:28:11;;;;;;;8.65;2.62;;;;;;;24.70;50.12;100467.84;1745155;82;20961;-74
2021/08/04 07:30:37;;;;;;;5.28;2.90;;;;;;;24.81;50.56;100460.45;1687113;83;21091;-74
2021/08/04 07:33:04;;;;;;;7.12;2.70;;;;;;;24.91;50.91;100451.38;1749741;81;21817;-74
2021/08/04 07:35:30;;;;;;;5.45;2.60;;;;;;;24.95;49.70;100450.42;1749678;82;20952;-74
2021/08/04 07:37:56;;;;;;;3.87;2.50;;;;;;;24.96;49.83;100452.08;1749712;82;20996;-74
2021/08/04 07:40:23;;;;;;;4.78;2.90;;;;;;;25.02;50.47;100455.31;1749672;81;21429;-74
2021/08/04 07:42:51;;;;;;;7.62;2.45;;;;;;;25.09;49.64;100455.60;1747947;81;21424;-74
2021/08/04 07:45:18;;;;;;;4.72;2.40;;;;;;;25.11;48.59;100454.86;1752265;82;21819;-74
2021/08/04 07:47:46;;;;;;;3.70;2.12;;;;;;;25.19;49.08;100455.14;1752192;80;21523;-74
2021/08/04 07:50:14;;;;;;;3.55;2.00;;;;;;;25.27;48.84;100456.74;1752684;82;21104;-74
2021/08/04 07:52:41;;;;;;;3.27;2.10;;;;;;;25.29;48.38;100456.86;1752594;82;20973;-75
2021/08/04 07:55:13;;;;;;;2.40;2.15;;;;;;;25.21;48.14;100460.33;1752627;82;21472;-75
2021/08/04 07:57:38;;;;;;;3.50;1.92;;;;;;;25.23;48.33;100455.53;1752586;81;21814;-75
2021/08/04 08:00:07;;;;;;;3.08;2.10;;;;;;;25.32;48.19;100458.29;1746636;82;21038;-75
2021/08/04 08:02:36;;;;;;;2.02;1.77;;;;;;;25.47;48.24;100460.69;1743507;81;21019;-75
2021/08/04 08:05:05;;;;;;;2.05;1.85;;;;;;;25.61;47.25;100465.81;1750480;82;21640;-75
2021/08/04 08:07:32;;;;;;;4.28;2.10;;;;;;;25.76;47.31;100457.41;1751752;81;21008;-75
2021/08/04 08:09:58;;;;;;;6.53;1.67;;;;;;;25.87;45.75;100464.02;1745380;82;22188;-75
2021/08/04 08:12:26;;;;;;;3.83;2.15;;;;;;;25.89;45.46;100455.97;1746944;81;21504;-75
2021/08/04 08:14:53;;;;;;;4.65;2.27;;;;;;;25.92;45.09;100464.99;1753591;81;21055;-75
2021/08/04 08:17:19;;;;;;;4.12;1.87;;;;;;;25.96;45.19;100458.11;1754927;81;20974;-75
2021/08/04 08:19:46;;;;;;;7.17;1.85;;;;;;;26.06;45.28;100456.78;1755573;81;20989;-75
2021/08/04 08:22:12;;;;;;;3.50;1.92;;;;;;;26.19;45.26;100457.48;1749318;81;21833;-75
2021/08/04 08:24:39;;;;;;;5.37;2.22;;;;;;;26.33;44.37;100445.17;1747326;82;20933;-75
2021/08/04 08:27:05;;;;;;;2.92;1.92;;;;;;;26.44;44.41;100447.16;1747105;82;21021;-75
2021/08/04 08:29:32;;;;;;;5.97;2.40;;;;;;;26.49;45.20;100449.52;1747277;81;20965;-75
2021/08/04 08:31:58;;;;;;;3.72;2.33;;;;;;;26.61;44.48;100442.82;1747042;81;20957;-75
2021/08/04 08:34:24;;;;;;;6.92;2.52;;;;;;;26.67;43.76;100442.45;1748201;81;22219;-75
2021/08/04 08:36:52;;;;;;;4.67;2.20;;;;;;;26.72;43.95;100435.29;1753518;81;21052;-75
2021/08/04 08:39:19;;;;;;;2.87;2.20;;;;;;;26.75;42.84;100440.28;1755295;81;22294;-75
2021/08/04 08:41:45;;;;;;;2.72;1.80;;;;;;;26.75;43.44;100438.92;1755296;81;21519;-75
2021/08/04 08:44:12;;;;;;;5.10;2.50;;;;;;;26.88;43.56;100435.75;1751754;81;21496;-75
2021/08/04 08:46:38;;;;;;;4.80;2.40;;;;;;;27.06;43.06;100433.05;1746925;81;22224;-75
2021/08/04 08:49:05;;;;;;;5.15;2.20;;;;;;;27.19;42.42;100434.75;1748997;81;21494;-75
2021/08/04 08:51:32;;;;;;;5.72;1.90;;;;;;;27.25;42.34;100433.31;1751887;81;21408;-75
2021/08/04 08:53:59;;;;;;;6.03;1.70;;;;;;;27.19;41.89;100427.44;1749149;81;21485;-75
2021/08/04 08:56:25;;;;;;;2.20;1.65;;;;;;;27.07;42.31;100429.28;1748653;81;21492;-75
2021/08/04 08:58:53;;;;;;;6.03;2.50;;;;;;;26.96;42.32;100426.78;1747027;81;21845;-75
2021/08/04 09:01:32;;;;;;;5.50;2.42;;;;;;;26.85;41.41;100432.14;1746918;81;21401;-75
2021/08/04 09:04:02;;;;;;;4.97;2.33;;;;;;;26.76;41.44;100420.25;1753370;81;20991;-75
2021/08/04 09:06:46;;;;;;;4.10;2.05;;;;;;;26.85;41.36;100422.66;1755177;81;21022;-75
2021/08/04 09:09:18;;;;;;;8.43;1.80;;;;;;;26.93;41.08;100422.36;1738794;81;21061;-75
2021/08/04 09:11:55;;;;;;;3.85;1.82;;;;;;;26.91;40.20;100412.25;1716077;81;21477;-75
2021/08/04 09:14:28;;;;;;;4.10;1.90;;;;;;;26.94;40.62;100409.92;1704916;84;20998;-75
2021/08/04 09:17:13;;;;;;;4.55;1.90;;;;;;;27.06;40.58;100408.65;1704846;83;21058;-75
2021/08/04 09:19:47;;;;;;;6.22;2.20;;;;;;;27.21;40.83;100407.69;1705005;84;20957;-75
2021/08/04 09:22:22;;;;;;;6.62;2.90;;;;;;;27.43;40.80;100410.73;1704309;84;21022;-75
2021/08/04 09:25:13;;;;;;;5.10;2.72;;;;;;;27.60;39.91;100408.16;1705500;83;20973;-75
2021/08/04 09:27:53;;;;;;;6.35;2.75;;;;;;;27.69;38.51;100401.38;1712944;83;21002;-75
2021/08/04 09:30:32;;;;;;;9.23;2.77;;;;;;;27.74;38.10;100406.94;1712270;83;21774;-75
2021/08/04 09:33:25;;;;;;;10.85;3.40;;;;;;;27.81;37.82;100402.23;1704489;84;21070;-75
2021/08/04 09:35:55;;;;;;;4.60;2.33;;;;;;;27.90;37.67;100390.51;1703064;84;20992;-75
2021/08/04 09:38:22;;;;;;;7.47;1.85;;;;;;;27.97;38.12;100395.80;1705017;84;21822;-75
2021/08/04 09:41:11;;;;;;;4.90;2.30;;;;;;;28.05;37.69;100399.52;1705097;84;21486;-75
2021/08/04 09:43:39;;;;;;;6.50;2.22;;;;;;;28.12;37.52;100396.99;1711803;82;20963;-75
2021/08/04 09:46:06;;;;;;;6.30;2.22;;;;;;;28.17;37.13;100392.20;1705107;82;21196;-75
2021/08/04 09:48:32;;;;;;;5.03;2.37;;;;;;;28.21;37.19;100391.50;1705059;84;21058;-75
2021/08/04 09:51:03;;;;;;;6.95;2.30;;;;;;;28.37;37.52;100389.14;1705351;82;22206;-75
2021/08/04 09:53:36;;;;;;;4.80;2.25;;;;;;;28.57;37.30;100384.67;1705338;84;21007;-75
2021/08/04 09:56:17;;;;;;;5.05;2.58;;;;;;;28.80;37.08;100389.53;1705418;84;21034;-75
2021/08/04 09:58:51;;;;;;;7.92;2.60;;;;;;;29.05;37.14;100390.61;1705449;83;21007;-74
2021/08/04 10:01:21;;;;;;;6.30;2.02;;;;;;;29.28;36.36;100385.58;1705235;84;20951;-75
2021/08/04 10:04:05;;;;;;;7.67;2.40;;;;;;;29.42;36.17;100372.47;1705366;84;21827;-74
2021/08/04 10:06:33;;;;;;;5.62;2.50;;;;;;;29.58;35.66;100382.59;1705047;84;20952;-74
2021/08/04 10:09:02;;;;;;;13.00;2.30;;;;;;;29.74;34.84;100381.49;1707544;81;21077;-74
2021/08/04 10:11:29;;;;;;;8.85;2.30;;;;;;;29.82;34.93;100376.45;1749744;82;20962;-75
2021/08/04 10:13:57;;;;;;;6.90;2.40;;;;;;;29.99;34.71;100374.23;1750108;81;21002;-74
2021/08/04 10:16:26;;;;;;;8.30;2.40;;;;;;;29.96;34.50;100378.29;1747035;82;21864;-74
2021/08/04 10:18:53;;;;;;;11.48;2.85;;;;;;;29.92;34.61;100378.52;1751341;81;21036;-74
2021/08/04 10:21:21;;;;;;;7.67;2.55;;;;;;;29.86;34.47;100381.69;1752704;82;20949;-74
2021/08/04 10:23:50;;;;;;;4.97;2.17;;;;;;;29.86;34.42;100378.13;1752669;82;20953;-74
2021/08/04 10:26:17;;;;;;;6.78;2.50;;;;;;;29.90;34.18;100374.66;1708640;83;20981;-74
2021/08/04 10:28:45;;;;;;;11.73;3.40;;;;;;;29.91;34.21;100374.11;1737967;82;21760;-74
2021/08/04 10:31:14;;;;;;;9.15;2.95;;;;;;;30.13;33.14;100373.68;1716705;83;20969;-74
2021/08/04 10:33:41;;;;;;;7.30;2.70;;;;;;;30.13;33.14;100373.68;1733773;81;21006;-75
2021/08/04 10:36:11;;;;;;;4.80;2.00;;;;;;;30.16;33.71;100379.98;1743830;82;21505;-75
2021/08/04 10:38:51;;;;;;;4.10;1.80;;;;;;;30.13;33.55;100372.31;1743739;82;20945;-75
2021/08/04 10:41:22;;;;;;;3.22;1.80;;;;;;;30.06;33.40;100368.91;1745911;81;20925;-75
2021/08/04 10:43:56;;;;;;;5.53;2.20;;;;;;;30.05;33.18;100371.34;1748640;82;20953;-75
2021/08/04 10:46:35;;;;;;;3.10;1.77;;;;;;;30.13;33.43;100367.41;1741697;82;21069;-75
2021/08/04 10:49:10;;;;;;;4.03;1.90;;;;;;;30.18;33.49;100363.38;1741526;82;21235;-75
2021/08/04 10:51:43;;;;;;;3.20;1.70;;;;;;;30.19;33.67;100367.75;1749557;82;21041;-75
2021/08/04 10:54:14;;;;;;;3.47;1.60;;;;;;;30.19;33.67;100367.75;1749720;82;21856;-75
2021/08/04 10:56:50;;;;;;;4.67;1.62;;;;;;;30.14;33.08;100373.96;1749882;82;20998;-75
2021/08/04 10:59:25;;;;;;;2.72;1.50;;;;;;;30.05;33.83;100377.33;1746932;82;21041;-75
2021/08/04 11:01:55;;;;;;;3.65;1.40;;;;;;;30.04;34.11;100373.78;1741817;82;21079;-75
2021/08/04 11:04:40;;;;;;;4.90;1.57;;;;;;;30.04;33.69;100377.88;1726293;83;21380;-74
2021/08/04 11:07:24;;;;;;;3.70;1.50;;;;;;;29.83;33.83;100377.28;1732884;82;21783;-74
2021/08/04 11:09:58;;;;;;;2.12;1.52;;;;;;;29.65;33.80;100379.72;1737940;82;27502;-74
2021/08/04 11:12:40;;;;;;;4.00;1.50;;;;;;;29.52;34.30;100382.20;1715600;82;21039;-75
2021/08/04 11:15:29;;;;;;;5.25;1.50;;;;;;;29.37;34.18;100387.37;1749480;81;21096;-74
2021/08/04 11:18:04;;;;;;;4.45;1.40;;;;;;;29.14;34.16;100392.38;1747234;81;20965;-74
2021/08/04 11:20:32;;;;;;;3.52;1.50;;;;;;;29.14;34.16;100392.38;1755864;81;21805;-74
2021/08/04 11:22:59;;;;;;;4.17;1.70;;;;;;;29.07;34.76;100385.73;1755491;81;20996;-74
2021/08/04 11:25:42;;;;;;;2.47;1.57;;;;;;;29.06;35.73;100384.09;1741919;81;21486;-74
2021/08/04 11:28:17;;;;;;;2.40;1.47;;;;;;;29.07;35.72;100378.12;1740343;82;22377;-74
2021/08/04 11:30:53;;;;;;;2.95;1.40;;;;;;;29.07;35.91;100377.58;1740718;82;21089;-74
2021/08/04 11:33:24;;;;;;;1.95;1.40;;;;;;;29.12;35.92;100367.85;1748961;81;21866;-74